Rechercher aéroport 
image banner adimage banner adimage banner ad
image banner ad

17CL - Las Trancas

Situé à Davenport, United States

ICAO - 17CL, IATA -

Données fournies par Airmate  

Information générale

Coordonnées: N37°5'17" W122°16'25"
Élévation : 125 feet MSL.
Variation magnétique : 16° East
Voir autres Aéroports à California

Données opérationnelles

Special qualification required
Heure actuelle UTC:
Heure actuelle locale:
Météo à : KNUQ - Moffett Federal Afld ( 42 km )
METAR: KNUQ 251235Z AUTO 36004KT 10SM OVC011 15/13 A2996 RMK AO2
Voir NOTAMs / SUP AIP / TFR affectant cet aéroport [VIEW]
Fréquences de communication: [VIEW]

Pistes:

Identifiant RWYQFULongueur (ft)Largeur (ft)SurfaceLDA (ft)
14130030GRAVEL
32130030GRAVEL

Coordonnées de l'aéroport

Adresse: Davenport United States

Vue satellite de 17CL